createdAt,value
2016-04-25T00:00:24.544Z,0
2016-04-25T00:01:24.750Z,0
2016-04-25T00:02:24.674Z,0
2016-04-25T00:03:24.676Z,0
2016-04-25T00:04:24.741Z,0
2016-04-25T00:05:24.683Z,0
2016-04-25T00:06:25.013Z,0
2016-04-25T00:07:24.874Z,0
2016-04-25T00:08:24.940Z,0
2016-04-25T00:09:24.848Z,0
2016-04-25T00:10:25.040Z,0
2016-04-25T00:11:25.136Z,0
2016-04-25T00:12:24.857Z,0
2016-04-25T00:13:24.953Z,0
2016-04-25T00:14:24.971Z,0
2016-04-25T00:15:25.068Z,0
2016-04-25T00:16:25.134Z,0
2016-04-25T00:17:25.027Z,0
2016-04-25T00:18:25.232Z,0
2016-04-25T00:19:25.078Z,0
2016-04-25T00:20:25.159Z,0
2016-04-25T00:21:25.241Z,0
2016-04-25T00:22:25.404Z,0
2016-04-25T00:23:25.314Z,0
2016-04-25T00:24:25.379Z,0
2016-04-25T00:25:25.335Z,0
2016-04-25T00:26:25.337Z,0
2016-04-25T00:27:26.418Z,0
2016-04-25T00:28:25.390Z,0
2016-04-25T00:29:25.595Z,0
2016-04-25T00:30:25.443Z,0
2016-04-25T00:31:25.414Z,0
2016-04-25T00:32:25.651Z,0
2016-04-25T00:33:25.560Z,0
2016-04-25T00:34:25.562Z,0
2016-04-25T00:35:25.550Z,0
2016-04-25T00:36:25.630Z,0
2016-04-25T00:37:25.603Z,0
2016-04-25T00:38:25.777Z,0
2016-04-25T00:39:25.670Z,0
2016-04-25T00:40:25.750Z,0
2016-04-25T00:41:25.878Z,0
2016-04-25T00:42:25.474Z,0
2016-04-25T00:43:25.822Z,0
2016-04-25T00:44:25.824Z,0
2016-04-25T00:45:25.749Z,0
2016-04-25T00:46:25.891Z,0
2016-04-25T00:47:25.927Z,0
2016-04-25T00:48:26.163Z,0
2016-04-25T00:49:26.166Z,0
2016-04-25T00:50:26.074Z,0
2016-04-25T00:51:26.233Z,0
2016-04-25T00:52:26.032Z,0
2016-04-25T00:53:26.005Z,0
2016-04-25T00:54:26.070Z,0
2016-04-25T00:55:26.244Z,0
2016-04-25T00:56:26.168Z,0
2016-04-25T00:57:26.641Z,0
2016-04-25T00:58:26.237Z,0
2016-04-25T00:59:26.443Z,0
2016-04-25T01:00:26.242Z,0
2016-04-25T01:01:26.244Z,0
2016-04-25T01:02:26.247Z,0
2016-04-25T01:03:26.563Z,0
2016-04-25T01:04:26.472Z,0
2016-04-25T01:05:26.490Z,0
2016-04-25T01:06:26.305Z,0
2016-04-25T01:07:26.401Z,0
2016-04-25T01:08:26.404Z,0
2016-04-25T01:09:26.517Z,0
2016-04-25T01:10:26.597Z,0
2016-04-25T01:11:26.724Z,0
2016-04-25T01:12:26.430Z,0
2016-04-25T01:13:26.574Z,0
2016-04-25T01:14:26.561Z,0
2016-04-25T01:15:26.594Z,0
2016-04-25T01:16:26.566Z,0
2016-04-25T01:17:26.678Z,0
2016-04-25T01:18:26.713Z,0
2016-04-25T01:19:26.808Z,0
2016-04-25T01:20:26.780Z,0
2016-04-25T01:21:26.860Z,0
2016-04-25T01:22:26.786Z,0
2016-04-25T01:23:26.835Z,0
2016-04-25T01:24:26.900Z,0
2016-04-25T01:25:26.918Z,0
2016-04-25T01:26:26.999Z,0
2016-04-25T01:27:28.393Z,0
2016-04-25T01:28:27.005Z,0
2016-04-25T01:29:27.585Z,0
2016-04-25T01:30:27.151Z,0
2016-04-25T01:31:27.201Z,0
2016-04-25T01:32:26.937Z,0
2016-04-25T01:33:27.253Z,0
2016-04-25T01:34:27.178Z,0
2016-04-25T01:35:27.211Z,0
2016-04-25T01:36:27.292Z,0
2016-04-25T01:37:27.186Z,0
2016-04-25T01:38:27.156Z,0
2016-04-25T01:39:27.269Z,0
2016-04-25T01:40:27.256Z,0
2016-04-25T01:41:27.290Z,0
2016-04-25T01:42:28.105Z,0
2016-04-25T01:43:27.560Z,0
2016-04-25T01:44:27.500Z,0
2016-04-25T01:45:27.488Z,0
2016-04-25T01:46:27.475Z,0
2016-04-25T01:47:27.556Z,0
2016-04-25T01:48:27.480Z,0
2016-04-25T01:49:27.655Z,0
2016-04-25T01:50:27.627Z,0
2016-04-25T01:51:27.629Z,0
2016-04-25T01:52:27.569Z,0
2016-04-25T01:53:27.619Z,0
2016-04-25T01:54:27.575Z,0
2016-04-25T01:55:27.749Z,0
2016-04-25T01:56:27.721Z,0
2016-04-25T01:57:27.973Z,0
2016-04-25T01:58:28.132Z,0
2016-04-25T01:59:27.916Z,0
2016-04-25T02:00:27.731Z,0
2016-04-25T02:01:28.001Z,0
2016-04-25T02:02:28.018Z,0
2016-04-25T02:03:28.021Z,0
2016-04-25T02:04:27.883Z,0
2016-04-25T02:05:28.089Z,0
2016-04-25T02:06:28.107Z,0
2016-04-25T02:07:28.173Z,0
2016-04-25T02:08:28.065Z,0
2016-04-25T02:09:28.053Z,0
2016-04-25T02:10:28.211Z,0
2016-04-25T02:11:28.121Z,0
2016-04-25T02:12:29.170Z,0
2016-04-25T02:13:27.797Z,0
2016-04-25T02:14:28.206Z,0
2016-04-25T02:15:28.397Z,0
2016-04-25T02:16:28.306Z,0
2016-04-25T02:17:28.230Z,0
2016-04-25T02:18:28.249Z,0
2016-04-25T02:19:28.298Z,0
2016-04-25T02:20:28.363Z,0
2016-04-25T02:21:28.430Z,0
2016-04-25T02:22:28.635Z,0
2016-04-25T02:23:28.543Z,0
2016-04-25T02:24:28.468Z,0
2016-04-25T02:25:28.501Z,0
2016-04-25T02:26:28.536Z,0
2016-04-25T02:27:28.571Z,0
2016-04-25T02:28:29.290Z,0
2016-04-25T02:29:28.544Z,0
2016-04-25T02:30:28.718Z,0
2016-04-25T02:31:28.627Z,0
2016-04-25T02:32:28.755Z,0
2016-04-25T02:33:28.712Z,0
2016-04-25T02:34:28.746Z,0
2016-04-25T02:35:28.857Z,0
2016-04-25T02:36:28.844Z,0
2016-04-25T02:37:28.800Z,0
2016-04-25T02:38:28.974Z,0
2016-04-25T02:39:28.898Z,0
2016-04-25T02:40:28.949Z,0
2016-04-25T02:41:29.014Z,0
2016-04-25T02:42:29.111Z,0
2016-04-25T02:43:29.534Z,0
2016-04-25T02:44:29.053Z,0
2016-04-25T02:45:28.962Z,0
2016-04-25T02:46:29.028Z,0
2016-04-25T02:47:29.155Z,0
2016-04-25T02:48:43.345Z,0
2016-04-25T02:49:29.067Z,0
2016-04-25T02:50:29.225Z,0
2016-04-25T02:51:29.166Z,0
2016-04-25T02:52:29.200Z,0
2016-04-25T02:53:29.140Z,0
2016-04-25T02:54:29.346Z,0
2016-04-25T02:55:29.316Z,0
2016-04-25T02:56:29.461Z,0
2016-04-25T02:57:29.369Z,0
2016-04-25T02:58:29.450Z,0
2016-04-25T02:59:29.469Z,0
2016-04-25T03:00:29.518Z,0
2016-04-25T03:01:29.646Z,0
2016-04-25T03:02:29.492Z,0
2016-04-25T03:03:29.652Z,0
2016-04-25T03:04:29.451Z,0
2016-04-25T03:05:29.672Z,0
2016-04-25T03:06:29.613Z,0
2016-04-25T03:07:29.568Z,0
2016-04-25T03:08:29.601Z,0
2016-04-25T03:09:29.714Z,0
2016-04-25T03:10:29.764Z,0
2016-04-25T03:11:29.845Z,0
2016-04-25T03:12:29.784Z,0
2016-04-25T03:13:29.928Z,0
2016-04-25T03:14:29.806Z,0
2016-04-25T03:15:29.745Z,0
2016-04-25T03:16:29.889Z,0
2016-04-25T03:17:29.939Z,0
2016-04-25T03:18:30.003Z,0
2016-04-25T03:19:29.851Z,0
2016-04-25T03:20:29.994Z,0
2016-04-25T03:21:30.043Z,0
2016-04-25T03:22:30.061Z,0
2016-04-25T03:23:29.830Z,0
2016-04-25T03:24:30.098Z,0
2016-04-25T03:25:30.101Z,0
2016-04-25T03:26:30.104Z,0
2016-04-25T03:27:30.325Z,0
2016-04-25T03:28:29.921Z,0
2016-04-25T03:29:30.330Z,0
2016-04-25T03:30:30.129Z,0
2016-04-25T03:31:30.335Z,0
2016-04-25T03:32:30.136Z,0
2016-04-25T03:33:30.278Z,0
2016-04-25T03:34:30.344Z,0
2016-04-25T03:35:30.268Z,4
2016-04-25T03:36:30.381Z,4
2016-04-25T03:37:30.477Z,0
2016-04-25T03:38:30.323Z,0
2016-04-25T03:39:30.529Z,4
2016-04-25T03:40:30.469Z,0
2016-04-25T03:41:30.581Z,4
2016-04-25T03:42:30.490Z,4
2016-04-25T03:43:30.868Z,8
2016-04-25T03:44:30.542Z,4
2016-04-25T03:45:30.701Z,8
2016-04-25T03:46:30.673Z,8
2016-04-25T03:47:30.536Z,8
2016-04-25T03:48:30.788Z,12
2016-04-25T03:49:30.681Z,12
2016-04-25T03:50:30.731Z,12
2016-04-25T03:51:30.717Z,12
2016-04-25T03:52:30.767Z,20
2016-04-25T03:53:30.927Z,20
2016-04-25T03:54:30.960Z,24
2016-04-25T03:55:30.900Z,24
2016-04-25T03:56:30.763Z,32
2016-04-25T03:57:30.906Z,32
2016-04-25T03:58:31.533Z,44
2016-04-25T03:59:30.895Z,48
2016-04-25T04:00:30.976Z,56
2016-04-25T04:01:31.089Z,60
2016-04-25T04:02:31.013Z,68
2016-04-25T04:03:31.093Z,76
2016-04-25T04:04:31.221Z,88
2016-04-25T04:05:31.162Z,96
2016-04-25T04:06:31.133Z,108
2016-04-25T04:07:31.292Z,120
2016-04-25T04:08:31.451Z,132
2016-04-25T04:09:31.407Z,144
2016-04-25T04:10:31.410Z,160
2016-04-25T04:11:31.225Z,176
2016-04-25T04:12:31.352Z,192
2016-04-25T04:13:31.948Z,212
2016-04-25T04:14:31.515Z,232
2016-04-25T04:15:31.673Z,252
2016-04-25T04:16:31.504Z,276
2016-04-25T04:17:31.459Z,304
2016-04-25T04:18:31.540Z,336
2016-04-25T04:19:31.606Z,372
2016-04-25T04:20:31.702Z,412
2016-04-25T04:21:32.159Z,456
2016-04-25T04:22:31.458Z,492
2016-04-25T04:23:31.711Z,528
2016-04-25T04:24:31.947Z,564
2016-04-25T04:25:31.856Z,608
2016-04-25T04:26:31.827Z,644
2016-04-25T04:27:31.706Z,660
2016-04-25T04:28:32.021Z,676
2016-04-25T04:29:31.836Z,692
2016-04-25T04:30:31.838Z,708
2016-04-25T04:31:31.841Z,732
2016-04-25T04:32:31.921Z,768
2016-04-25T04:33:31.863Z,808
2016-04-25T04:34:31.865Z,844
2016-04-25T04:35:31.758Z,880
2016-04-25T04:36:32.026Z,932
2016-04-25T04:37:31.966Z,1000
2016-04-25T04:38:31.844Z,1072
2016-04-25T04:39:32.128Z,1156
2016-04-25T04:40:32.099Z,1212
2016-04-25T04:41:32.321Z,1252
2016-04-25T04:42:32.230Z,1264
2016-04-25T04:43:33.623Z,1268
2016-04-25T04:44:32.157Z,1272
2016-04-25T04:45:32.144Z,1296
2016-04-25T04:46:32.241Z,1312
2016-04-25T04:47:32.197Z,1344
2016-04-25T04:48:32.434Z,1372
2016-04-25T04:49:32.280Z,1376
2016-04-25T04:50:32.517Z,1384
2016-04-25T04:51:32.348Z,1408
2016-04-25T04:52:32.289Z,1452
2016-04-25T04:53:32.447Z,1500
2016-04-25T04:54:32.387Z,1576
2016-04-25T04:55:32.436Z,1560
2016-04-25T04:56:32.471Z,1524
2016-04-25T04:57:32.442Z,1520
2016-04-25T04:58:32.835Z,1544
2016-04-25T04:59:32.619Z,1572
2016-04-25T05:00:32.669Z,1600
2016-04-25T05:01:32.578Z,1640
2016-04-25T05:02:32.690Z,1676
2016-04-25T05:03:32.599Z,1700
2016-04-25T05:04:32.774Z,1700
2016-04-25T05:05:32.636Z,1728
2016-04-25T05:06:32.685Z,1724
2016-04-25T05:07:32.782Z,1760
2016-04-25T05:08:32.831Z,1820
2016-04-25T05:09:32.709Z,1852
2016-04-25T05:10:32.930Z,1860
2016-04-25T05:11:32.777Z,1924
2016-04-25T05:12:33.143Z,1920
2016-04-25T05:13:33.080Z,1936
2016-04-25T05:14:33.378Z,1976
2016-04-25T05:15:33.190Z,2036
2016-04-25T05:16:33.205Z,2076
2016-04-25T05:17:33.261Z,2028
2016-04-25T05:18:33.311Z,2028
2016-04-25T05:19:33.251Z,2036
2016-04-25T05:20:33.832Z,2048
2016-04-25T05:21:33.491Z,2080
2016-04-25T05:22:33.579Z,2188
2016-04-25T05:23:33.525Z,2288
2016-04-25T05:24:33.738Z,2336
2016-04-25T05:25:33.917Z,2460
2016-04-25T05:26:33.675Z,2452
2016-04-25T05:27:33.915Z,2424
2016-04-25T05:28:34.154Z,2356
2016-04-25T05:29:33.955Z,2476
2016-04-25T05:30:33.805Z,2532
2016-04-25T05:31:33.684Z,2636
2016-04-25T05:32:33.781Z,2736
2016-04-25T05:33:33.956Z,2896
2016-04-25T05:34:33.928Z,2772
2016-04-25T05:35:33.885Z,2912
2016-04-25T05:36:34.091Z,3476
2016-04-25T05:37:33.955Z,3680
2016-04-25T05:38:34.019Z,4308
2016-04-25T05:39:34.023Z,4296
2016-04-25T05:40:34.167Z,4368
2016-04-25T05:41:34.357Z,3936
2016-04-25T05:42:34.031Z,4644
2016-04-25T05:43:34.067Z,4896
2016-04-25T05:44:34.178Z,5788
2016-04-25T05:45:34.211Z,6248
2016-04-25T05:46:34.230Z,6380
2016-04-25T05:47:34.092Z,7292
2016-04-25T05:48:34.283Z,6412
2016-04-25T05:49:34.208Z,6960
2016-04-25T05:50:34.241Z,7812
2016-04-25T05:51:34.415Z,7928
2016-04-25T05:52:34.450Z,7676
2016-04-25T05:53:34.264Z,8160
2016-04-25T05:54:34.438Z,7200
2016-04-25T05:55:34.630Z,7176
2016-04-25T05:56:34.538Z,7040
2016-04-25T05:57:34.447Z,6216
2016-04-25T05:58:35.310Z,5824
2016-04-25T05:59:34.671Z,5500
2016-04-25T06:00:34.846Z,5544
2016-04-25T06:01:34.676Z,5192
2016-04-25T06:02:34.836Z,5084
2016-04-25T06:03:34.854Z,4880
2016-04-25T06:04:34.825Z,4644
2016-04-25T06:05:34.844Z,4660
2016-04-25T06:06:34.737Z,4716
2016-04-25T06:07:34.771Z,4708
2016-04-25T06:08:34.837Z,4604
2016-04-25T06:09:34.839Z,4764
2016-04-25T06:10:34.857Z,4832
2016-04-25T06:11:34.922Z,4924
2016-04-25T06:12:34.800Z,5352
2016-04-25T06:13:35.053Z,5612
2016-04-25T06:14:35.087Z,5824
2016-04-25T06:15:34.870Z,5864
2016-04-25T06:16:35.076Z,6172
2016-04-25T06:17:35.017Z,5672
2016-04-25T06:18:35.238Z,5272
2016-04-25T06:19:35.131Z,5720
2016-04-25T06:20:35.166Z,6224
2016-04-25T06:21:35.246Z,5668
2016-04-25T06:22:35.484Z,5280
2016-04-25T06:23:35.050Z,4624
2016-04-25T06:24:35.302Z,5132
2016-04-25T06:25:35.320Z,5248
2016-04-25T06:26:35.261Z,5592
2016-04-25T06:27:35.217Z,4820
2016-04-25T06:28:36.047Z,4840
2016-04-25T06:29:35.144Z,5940
2016-04-25T06:30:35.381Z,6024
2016-04-25T06:31:35.446Z,6524
2016-04-25T06:32:35.433Z,7872
2016-04-25T06:33:35.639Z,7864
2016-04-25T06:34:35.329Z,4404
2016-04-25T06:35:35.504Z,5844
2016-04-25T06:36:35.397Z,8080
2016-04-25T06:37:35.571Z,6468
2016-04-25T06:38:35.559Z,5764
2016-04-25T06:39:35.607Z,5436
2016-04-25T06:40:35.596Z,5768
2016-04-25T06:41:35.973Z,7764
2016-04-25T06:42:35.694Z,7500
2016-04-25T06:43:38.196Z,5316
2016-04-25T06:44:35.607Z,4888
2016-04-25T06:45:35.796Z,4596
2016-04-25T06:46:35.658Z,5004
2016-04-25T06:47:35.832Z,5072
2016-04-25T06:48:35.852Z,4932
2016-04-25T06:49:35.884Z,6352
2016-04-25T06:50:36.013Z,5960
2016-04-25T06:51:36.046Z,5936
2016-04-25T06:52:36.065Z,6612
2016-04-25T06:53:36.114Z,5960
2016-04-25T06:54:36.305Z,5508
2016-04-25T06:55:36.323Z,4804
2016-04-25T06:56:36.185Z,6284
2016-04-25T06:57:36.109Z,5464
2016-04-25T06:58:36.144Z,5524
2016-04-25T06:59:36.600Z,7172
2016-04-25T07:00:36.243Z,5416
2016-04-25T07:01:36.214Z,7212
2016-04-25T07:02:36.372Z,7160
2016-04-25T07:03:36.328Z,5788
2016-04-25T07:04:36.222Z,6524
2016-04-25T07:05:36.256Z,5692
2016-04-25T07:06:36.291Z,4980
2016-04-25T07:07:37.949Z,4920
2016-04-25T07:08:36.233Z,5248
2016-04-25T07:09:36.595Z,5664
2016-04-25T07:10:36.519Z,4956
2016-04-25T07:11:36.819Z,5348
2016-04-25T07:12:37.994Z,6356
2016-04-25T07:13:37.605Z,14612
2016-04-25T07:14:36.640Z,11016
2016-04-25T07:15:36.658Z,6284
2016-04-25T07:16:36.942Z,5920
2016-04-25T07:17:38.241Z,6900
2016-04-25T07:18:36.948Z,7804
2016-04-25T07:19:36.857Z,9244
2016-04-25T07:20:36.890Z,7632
2016-04-25T07:21:37.049Z,9436
2016-04-25T07:22:38.598Z,10620
2016-04-25T07:23:37.117Z,6884
2016-04-25T07:24:37.120Z,6340
2016-04-25T07:25:37.170Z,6904
2016-04-25T07:26:37.344Z,15172
2016-04-25T07:27:38.784Z,13444
2016-04-25T07:28:38.365Z,29248
2016-04-25T07:29:36.977Z,24416
2016-04-25T07:30:37.214Z,41600
2016-04-25T07:31:37.389Z,40704
2016-04-25T07:32:36.986Z,38432
2016-04-25T07:33:37.269Z,31360
2016-04-25T07:34:37.303Z,30208
2016-04-25T07:35:37.134Z,5748
2016-04-25T07:36:37.261Z,63840
2016-04-25T07:37:39.389Z,63776
2016-04-25T07:38:37.360Z,6720
2016-04-25T07:39:37.505Z,28896
2016-04-25T07:40:37.663Z,21120
2016-04-25T07:41:37.635Z,10260
2016-04-25T07:42:39.183Z,9336
2016-04-25T07:43:37.983Z,11984
2016-04-25T07:44:37.657Z,48896
2016-04-25T07:45:38.099Z,47008
2016-04-25T07:46:37.601Z,42752
2016-04-25T07:47:37.557Z,39104
2016-04-25T07:48:37.699Z,46560
2016-04-25T07:49:37.999Z,51040
2016-04-25T07:50:37.862Z,27584
2016-04-25T07:51:37.973Z,44768
2016-04-25T07:52:40.008Z,50400
2016-04-25T07:53:37.854Z,49152
2016-04-25T07:54:37.966Z,15048
2016-04-25T07:55:37.876Z,22688
2016-04-25T07:56:38.003Z,21440
2016-04-25T07:57:38.927Z,7492
2016-04-25T07:58:38.493Z,6396
2016-04-25T07:59:37.964Z,7184
2016-04-25T08:00:37.951Z,7540
2016-04-25T08:01:38.064Z,6212
2016-04-25T08:02:39.581Z,25216
2016-04-25T08:03:38.209Z,24608
2016-04-25T08:04:38.118Z,58560
2016-04-25T08:05:38.089Z,66560
2016-04-25T08:06:38.155Z,57696
2016-04-25T08:07:39.736Z,76832
2016-04-25T08:08:38.316Z,77440
2016-04-25T08:09:38.475Z,76448
2016-04-25T08:10:38.525Z,21120
2016-04-25T08:11:38.262Z,16012
2016-04-25T08:12:38.805Z,71680
2016-04-25T08:13:39.026Z,8160
2016-04-25T08:14:39.186Z,7536
2016-04-25T08:15:38.406Z,9212
2016-04-25T08:16:38.580Z,12612
2016-04-25T08:17:38.647Z,12756
2016-04-25T08:18:38.664Z,13340
2016-04-25T08:19:39.199Z,42528
2016-04-25T08:20:38.591Z,10068
2016-04-25T08:21:38.719Z,11252
2016-04-25T08:22:38.786Z,11512
2016-04-25T08:23:38.835Z,12760
2016-04-25T08:24:38.900Z,22176
2016-04-25T08:25:39.137Z,14084
2016-04-25T08:26:38.937Z,58080
2016-04-25T08:27:39.142Z,54592
2016-04-25T08:28:38.723Z,47840
2016-04-25T08:29:39.570Z,8688
2016-04-25T08:30:39.089Z,10528
2016-04-25T08:31:39.216Z,11492
2016-04-25T08:32:39.297Z,10980
2016-04-25T08:33:39.252Z,28000
2016-04-25T08:34:39.240Z,21056
2016-04-25T08:35:39.305Z,21152
2016-04-25T08:36:39.230Z,32416
2016-04-25T08:37:39.341Z,19424
2016-04-25T08:38:39.375Z,20480
2016-04-25T08:39:39.269Z,37216
2016-04-25T08:40:39.292Z,53600
2016-04-25T08:41:39.435Z,41728
2016-04-25T08:42:39.313Z,42592
2016-04-25T08:43:39.659Z,43360
2016-04-25T08:44:40.710Z,26496
2016-04-25T08:45:39.509Z,28480
2016-04-25T08:46:39.574Z,32192
2016-04-25T08:47:39.623Z,16176
2016-04-25T08:48:39.673Z,33344
2016-04-25T08:49:39.613Z,19488
2016-04-25T08:50:39.647Z,37792
2016-04-25T08:51:39.712Z,17760
2016-04-25T08:52:40.028Z,18208
2016-04-25T08:53:40.030Z,17632
2016-04-25T08:54:39.986Z,21696
2016-04-25T08:55:39.958Z,19008
2016-04-25T08:56:39.928Z,20256
2016-04-25T08:57:40.056Z,30592
2016-04-25T08:58:41.528Z,12660
2016-04-25T08:59:39.828Z,13316
2016-04-25T09:00:40.158Z,19168
2016-04-25T09:01:40.286Z,12936
2016-04-25T09:02:40.101Z,18720
2016-04-25T09:03:40.166Z,18720
2016-04-25T09:04:40.403Z,13760
2016-04-25T09:05:40.610Z,11208
2016-04-25T09:06:40.237Z,10004
2016-04-25T09:07:40.318Z,9260
2016-04-25T09:08:40.493Z,10704
2016-04-25T09:09:40.480Z,14600
2016-04-25T09:10:40.404Z,14652
2016-04-25T09:11:40.501Z,11264
2016-04-25T09:12:40.534Z,15104
2016-04-25T09:13:41.021Z,13236
2016-04-25T09:14:41.305Z,17536
2016-04-25T09:15:40.464Z,16480
2016-04-25T09:16:40.658Z,17344
2016-04-25T09:17:40.583Z,13896
2016-04-25T09:18:40.820Z,15324
2016-04-25T09:19:40.854Z,52672
2016-04-25T09:20:40.857Z,23328
2016-04-25T09:21:40.844Z,19424
2016-04-25T09:22:40.878Z,20000
2016-04-25T09:23:41.021Z,21536
2016-04-25T09:24:40.868Z,22816
2016-04-25T09:25:41.026Z,29056
2016-04-25T09:26:40.888Z,21440
2016-04-25T09:27:40.860Z,16928
2016-04-25T09:28:41.488Z,15332
2016-04-25T09:29:40.678Z,17952
2016-04-25T09:30:41.071Z,27136
2016-04-25T09:31:41.011Z,14788
2016-04-25T09:32:41.171Z,13104
2016-04-25T09:33:41.189Z,9548
2016-04-25T09:34:41.159Z,8824
2016-04-25T09:35:41.162Z,10652
2016-04-25T09:36:41.228Z,12552
2016-04-25T09:37:41.184Z,9048
2016-04-25T09:38:41.327Z,7848
2016-04-25T09:39:41.314Z,9256
2016-04-25T09:40:41.364Z,13636
2016-04-25T09:41:41.381Z,17504
2016-04-25T09:42:55.509Z,32064
2016-04-25T09:43:42.153Z,13220
2016-04-25T09:44:42.139Z,10620
2016-04-25T09:45:41.549Z,10576
2016-04-25T09:46:41.567Z,12596
2016-04-25T09:47:41.711Z,13156
2016-04-25T09:48:41.713Z,10884
2016-04-25T09:49:42.013Z,49280
2016-04-25T09:50:42.016Z,61696
2016-04-25T09:51:42.252Z,63936
2016-04-25T09:52:41.943Z,70464
2016-04-25T09:53:42.070Z,74688
2016-04-25T09:54:42.135Z,68096
2016-04-25T09:55:42.310Z,59328
2016-04-25T09:56:41.860Z,51584
2016-04-25T09:57:42.315Z,49664
2016-04-25T09:58:42.443Z,46208
2016-04-25T09:59:42.009Z,55200
2016-04-25T10:00:42.074Z,68160
2016-04-25T10:01:42.092Z,85568
2016-04-25T10:02:42.204Z,10356
2016-04-25T10:03:42.190Z,11876
2016-04-25T10:04:42.522Z,108640
2016-04-25T10:05:42.337Z,107648
2016-04-25T10:06:42.340Z,99840
2016-04-25T10:07:42.530Z,85088
2016-04-25T10:08:42.189Z,12676
2016-04-25T10:09:42.489Z,6464
2016-04-25T10:10:42.367Z,4876
2016-04-25T10:11:42.572Z,4400
2016-04-25T10:12:42.605Z,5132
2016-04-25T10:13:42.578Z,8732
2016-04-25T10:14:43.128Z,113152
2016-04-25T10:15:42.614Z,27712
2016-04-25T10:16:42.617Z,124224
2016-04-25T10:17:42.666Z,119840
2016-04-25T10:18:42.716Z,12908
2016-04-25T10:19:42.766Z,14776
2016-04-25T10:20:42.987Z,12228
2016-04-25T10:21:42.849Z,9992
2016-04-25T10:22:42.898Z,11796
2016-04-25T10:23:43.182Z,11852
2016-04-25T10:24:43.232Z,20608
2016-04-25T10:25:43.110Z,42080
2016-04-25T10:26:43.113Z,120704
2016-04-25T10:27:43.177Z,119904
2016-04-25T10:28:43.196Z,119200
2016-04-25T10:29:43.808Z,85056
2016-04-25T10:30:43.108Z,56960
2016-04-25T10:31:43.366Z,11520
2016-04-25T10:32:43.212Z,12184
2016-04-25T10:33:43.465Z,109760
2016-04-25T10:34:43.483Z,102848
2016-04-25T10:35:43.309Z,102144
2016-04-25T10:36:43.326Z,102656
2016-04-25T10:37:43.392Z,44640
2016-04-25T10:38:43.426Z,21920
2016-04-25T10:39:43.445Z,87520
2016-04-25T10:40:43.510Z,72768
2016-04-25T10:41:43.465Z,98912
2016-04-25T10:42:43.624Z,24768
2016-04-25T10:43:43.486Z,16672
2016-04-25T10:44:44.114Z,17984
2016-04-25T10:45:43.679Z,103232
2016-04-25T10:46:43.713Z,87424
2016-04-25T10:47:43.825Z,16608
2016-04-25T10:48:43.781Z,42944
2016-04-25T10:49:43.972Z,10532
2016-04-25T10:50:43.974Z,9600
2016-04-25T10:51:44.039Z,10640
2016-04-25T10:52:44.041Z,8768
2016-04-25T10:53:44.029Z,6680
2016-04-25T10:54:44.062Z,6048
2016-04-25T10:55:44.175Z,5540
2016-04-25T10:56:44.083Z,7156
2016-04-25T10:57:44.102Z,11032
2016-04-25T10:58:44.135Z,32032
2016-04-25T10:59:44.671Z,36640
2016-04-25T11:00:44.266Z,35392
2016-04-25T11:01:44.254Z,24896
2016-04-25T11:02:44.271Z,16960
2016-04-25T11:03:44.368Z,14356
2016-04-25T11:04:44.418Z,12076
2016-04-25T11:17:27.059Z,20864
2016-04-25T11:18:12.984Z,18304
2016-04-25T11:19:12.972Z,16576
2016-04-25T11:21:13.055Z,14348
2016-04-25T11:22:13.058Z,11200
2016-04-25T11:23:13.107Z,9864
2016-04-25T11:24:13.141Z,10168
2016-04-25T11:25:13.174Z,11844
2016-04-25T11:26:13.208Z,13156
2016-04-25T11:27:13.258Z,13420
2016-04-25T11:28:13.277Z,15616
2016-04-25T11:29:13.311Z,18784
2016-04-25T11:30:13.344Z,18528
2016-04-25T11:31:13.363Z,16608
2016-04-25T11:32:13.397Z,14136
2016-04-25T11:33:13.430Z,13684
2016-04-25T11:34:13.480Z,15552
2016-04-25T11:35:13.498Z,15904
2016-04-25T11:36:13.548Z,17248
2016-04-25T11:37:13.582Z,17088
2016-04-25T11:38:13.615Z,16736
2016-04-25T11:39:13.650Z,17152
2016-04-25T11:40:13.668Z,16736
2016-04-25T11:41:13.717Z,14212
2016-04-25T11:42:13.736Z,11964
2016-04-25T11:43:13.770Z,11908
2016-04-25T11:44:13.522Z,13140
2016-04-25T11:45:13.837Z,12512
2016-04-25T11:46:13.872Z,11996
2016-04-25T11:47:13.473Z,13532
2016-04-25T11:48:13.944Z,13488
2016-04-25T11:49:13.968Z,13644
2016-04-25T11:50:14.002Z,14304
2016-04-25T11:51:14.083Z,15776
2016-04-25T11:52:14.085Z,15340
2016-04-25T11:53:14.108Z,14508
2016-04-25T11:54:14.157Z,13880
2016-04-25T11:55:14.176Z,14492
2016-04-25T11:56:14.257Z,15040
2016-04-25T11:57:14.260Z,12596
2016-04-25T11:58:14.279Z,11384
2016-04-25T11:59:14.031Z,10728
2016-04-25T12:00:14.268Z,9884
2016-04-25T12:01:14.379Z,10292
2016-04-25T12:02:14.429Z,9724
2016-04-25T12:03:14.448Z,8704
2016-04-25T12:04:14.482Z,9336
2016-04-25T12:05:14.500Z,8920
2016-04-25T12:06:14.534Z,9768
2016-04-25T12:07:14.567Z,10596
2016-04-25T12:08:14.602Z,10720
2016-04-25T12:09:14.651Z,11568
2016-04-25T12:10:14.670Z,10944
2016-04-25T12:11:14.719Z,11336
2016-04-25T12:12:14.738Z,11364
2016-04-25T12:13:14.787Z,11292
2016-04-25T12:14:14.664Z,10208
2016-04-25T12:15:14.730Z,8968
2016-04-25T12:16:14.888Z,7880
2016-04-25T12:17:14.907Z,6320
2016-04-25T12:18:14.941Z,4928
2016-04-25T12:19:14.991Z,3764
2016-04-25T12:20:14.994Z,3612
2016-04-25T12:21:15.043Z,3716
2016-04-25T12:22:15.077Z,4544
2016-04-25T12:23:15.111Z,5620
2016-04-25T12:24:15.160Z,6348
2016-04-25T12:25:15.194Z,6996
2016-04-25T12:26:15.197Z,8712
2016-04-25T12:27:15.231Z,10912
2016-04-25T12:28:15.265Z,12592
2016-04-25T12:29:15.565Z,14176
2016-04-25T12:30:15.646Z,16480
2016-04-25T12:31:15.367Z,17792
2016-04-25T12:32:15.401Z,18112
2016-04-25T12:33:15.435Z,19840
2016-04-25T12:34:15.468Z,21024
2016-04-25T12:35:15.503Z,23488
2016-04-25T12:36:15.536Z,23808
2016-04-25T12:37:15.555Z,22880
2016-04-25T12:38:15.589Z,21440
2016-04-25T12:39:15.638Z,21856
2016-04-25T12:40:15.672Z,21664
2016-04-25T12:41:15.722Z,27456
2016-04-25T12:42:15.740Z,29312
2016-04-25T12:43:15.758Z,24256
2016-04-25T12:44:15.949Z,21632
2016-04-25T12:45:16.561Z,18528
2016-04-25T12:46:15.954Z,17600
2016-04-25T12:47:15.895Z,17152
2016-04-25T12:48:15.975Z,17696
2016-04-25T12:49:16.180Z,17536
2016-04-25T12:50:16.012Z,17984
2016-04-25T12:51:15.889Z,18912
2016-04-25T12:52:16.063Z,17920
2016-04-25T12:53:16.098Z,19936
2016-04-25T12:54:16.132Z,22016
2016-04-25T12:55:16.165Z,21088
2016-04-25T12:56:16.190Z,32128
2016-04-25T12:57:16.223Z,31328
2016-04-25T12:58:16.257Z,23744
2016-04-25T12:59:16.182Z,28320
2016-04-25T13:00:17.809Z,33056
2016-04-25T13:01:16.374Z,33536
2016-04-25T13:02:16.424Z,30144
2016-04-25T13:03:16.442Z,26688
2016-04-25T13:04:16.476Z,24448
2016-04-25T13:05:16.526Z,23360
2016-04-25T13:06:16.091Z,22144
2016-04-25T13:07:16.609Z,19936
2016-04-25T13:08:16.612Z,18592
2016-04-25T13:09:16.662Z,17280
2016-04-25T13:10:16.680Z,14360
2016-04-25T13:11:16.589Z,11988
2016-04-25T13:12:16.764Z,10960
2016-04-25T13:13:16.797Z,9984
2016-04-25T13:14:18.018Z,9584
2016-04-25T13:15:16.741Z,9868
2016-04-25T13:16:16.884Z,10500
2016-04-25T13:17:16.940Z,10388
2016-04-25T13:18:16.959Z,9968
2016-04-25T13:19:16.992Z,9384
2016-04-25T13:20:17.042Z,8532
2016-04-25T13:21:16.904Z,7740
2016-04-25T13:22:17.094Z,7124
2016-04-25T13:23:17.143Z,6796
2016-04-25T13:24:17.162Z,6204
2016-04-25T13:25:17.211Z,5468
2016-04-25T13:26:17.230Z,4880
2016-04-25T13:27:17.264Z,4068
2016-04-25T13:28:17.297Z,3320
2016-04-25T13:29:18.050Z,3316
2016-04-25T13:30:17.366Z,3720
2016-04-25T13:31:17.384Z,4264
2016-04-25T13:32:17.433Z,4832
2016-04-25T13:33:17.452Z,5240
2016-04-25T13:34:17.486Z,5436
2016-04-25T13:35:17.520Z,6312
2016-04-25T13:36:17.569Z,7616
2016-04-25T13:37:17.587Z,8624
2016-04-25T13:38:17.606Z,9292
2016-04-25T13:39:17.655Z,9296
2016-04-25T13:40:17.674Z,9616
2016-04-25T13:41:17.724Z,9940
2016-04-25T13:42:17.741Z,10028
2016-04-25T13:43:17.776Z,10148
2016-04-25T13:44:17.544Z,10216
2016-04-25T13:45:18.375Z,10388
2016-04-25T13:46:17.877Z,10688